Accueil
METAR-TAF:

METAR-TAF

Aéroports :

Sydney, Nouvelle-Écosse, Canada

latitude: 46-10N, longitude: 060-03W, altitude: 56 m

Observation

Le bulletin a été fait il y a 30 heures et 14 minutes, à 00:00 UTC
Vent 8 kt de est/sud-est
Température 15°C
Humidité 88%
Pression 1024 hPa
Visibilité: 24.1 km
Nuages épars à une hauteur de 2200 ft
Nuages fragmentés à une hauteur de 24000 ft

METAR: CYQY 210000Z 12008KT 15SM SCT022 BKN240 15/13 A3025 RMK SC4CC2 SLP246

Heure: 03:14 (06:14 UTC)

Prévision

Le bulletin a été fait il y a 12 heures et 36 minutes, à 17:38 UTC
Prévision valable du 20 à 18 UTC au 21 à 06 UTC
Vent 10 kt de est/sud-est
Visibilité: 10 km
Nuages épars à une hauteur de 3000 ft
A partir de 21 à 0400 UTC
Vent 5 kt de est/nord-est
Visibilité: 10 km
Nuages fragmentés à une hauteur de 1200 ft

TAF: CYQY 201738Z 2018/2106 12010KT P6SM SCT030 FM210400 07005KT P6SM BKN012 RMK NXT FCST BY 210000Z

Observations et prévisions météorologiques de plus de 4000 aéroports (messages METAR et TAF).

Les stations disponibles sont représentées par des disques jaunes et rouges sur la carte.

Passer la souris dessus pour voir le nom de la station.

Cliquer dessus pour voir les observations et prévisions météorologiques.

Pour changer de carte: cliquez sur les boutons verts avec une croix noire pour zoomer, sur le bouton vert avec un tiret pour effectuer un zoom arrière, ou sur les flèches vertes pour les cartes adjacentes.


METAR-TAF: